Time;durP1;ratioP1;P1;durP2;ratioP2;P2;SDS_P1;SDS_P2;PMS_P1;PMS_P2;Temp;Humidity;BMP_temperature;BMP_pressure;BME280_temperature;BME280_humidity;BME280_pressure;Samples;Min_cycle;Max_cycle;Signal;HPM_P1;HPM_P2
2022/08/11 00:02:26;;;;;;;2.88;1.92;;;;;;;;;;5035156;28;20041;-67
2022/08/11 00:04:54;;;;;;;2.65;2.10;;;;;;;;;;5045583;28;20041;-67
2022/08/11 00:07:20;;;;;;;5.32;2.22;;;;;;;;;;5044602;28;20033;-67
2022/08/11 00:09:46;;;;;;;5.82;2.20;;;;;;;;;;5030627;28;20041;-66
2022/08/11 00:12:14;;;;;;;4.13;2.20;;;;;;;;;;5049692;28;20037;-67
2022/08/11 00:14:40;;;;;;;4.90;2.35;;;;;;;;;;5049061;28;20036;-67
2022/08/11 00:17:09;;;;;;;4.43;2.17;;;;;;;;;;5051976;28;20111;-67
2022/08/11 00:19:40;;;;;;;8.25;2.30;;;;;;;;;;5046273;28;20120;-67
2022/08/11 00:22:08;;;;;;;3.67;2.10;;;;;;;;;;5037544;28;20029;-66
2022/08/11 00:24:35;;;;;;;4.53;2.05;;;;;;;;;;5034327;28;20071;-67
2022/08/11 00:27:02;;;;;;;4.78;2.20;;;;;;;;;;5051388;28;20432;-67
2022/08/11 00:29:28;;;;;;;3.78;2.25;;;;;;;;;;5042424;28;20040;-67
2022/08/11 00:31:56;;;;;;;4.15;2.15;;;;;;;;;;5043240;28;20041;-68
2022/08/11 00:34:27;;;;;;;9.25;2.17;;;;;;;;;;5048278;28;20068;-67
2022/08/11 00:37:18;;;;;;;4.22;2.10;;;;;;;;;;5037913;28;20041;-68
2022/08/11 00:39:47;;;;;;;7.45;2.40;;;;;;;;;;5027689;28;20193;-67
2022/08/11 00:42:50;;;;;;;6.07;2.08;;;;;;;;;;5048977;28;20033;-67
2022/08/11 00:45:23;;;;;;;4.07;2.05;;;;;;;;;;5036760;28;20021;-66
2022/08/11 00:48:14;;;;;;;3.28;2.22;;;;;;;;;;5053680;28;20055;-67
2022/08/11 00:50:57;;;;;;;6.13;2.40;;;;;;;;;;5048835;28;20065;-67
2022/08/11 00:53:23;;;;;;;4.85;2.47;;;;;;;;;;5044872;28;20024;-67
2022/08/11 00:55:52;;;;;;;5.05;2.30;;;;;;;;;;5051588;28;20025;-66
2022/08/11 00:58:38;;;;;;;7.25;2.38;;;;;;;;;;5033471;28;20045;-67
2022/08/11 01:01:16;;;;;;;4.78;2.17;;;;;;;;;;5046415;28;20064;-67
2022/08/11 01:03:53;;;;;;;4.15;2.20;;;;;;;;;;5038663;28;20425;-68
2022/08/11 01:07:02;;;;;;;3.35;2.22;;;;;;;;;;5045607;28;20033;-66
2022/08/11 01:09:53;;;;;;;7.65;2.35;;;;;;;;;;5012363;28;20041;-66
2022/08/11 01:12:37;;;;;;;;;;;;;;;;;;5048590;28;20063;-66
2022/08/11 01:15:05;;;;;;;4.63;2.50;;;;;;;;;;5040836;28;20011;-67
2022/08/11 01:18:09;;;;;;;2.85;2.08;;;;;;;;;;5049717;28;20029;-68
2022/08/11 01:20:46;;;;;;;5.78;2.20;;;;;;;;;;5034116;28;20041;-67
2022/08/11 01:23:46;;;;;;;5.85;2.47;;;;;;;;;;5052505;28;20381;-67
2022/08/11 01:26:28;;;;;;;3.50;2.28;;;;;;;;;;5050107;28;20389;-67
2022/08/11 01:29:38;;;;;;;7.88;2.50;;;;;;;;;;5036458;28;20481;-67
2022/08/11 01:32:34;;;;;;;7.45;2.42;;;;;;;;;;5038645;28;20032;-67
2022/08/11 01:35:34;;;;;;;7.22;2.40;;;;;;;;;;5052225;28;20057;-68
2022/08/11 01:38:11;;;;;;;4.57;2.50;;;;;;;;;;5053699;28;20032;-68
2022/08/11 01:41:01;;;;;;;3.60;2.58;;;;;;;;;;5048029;28;20281;-67
2022/08/11 01:46:52;;;;;;;6.68;2.72;;;;;;;;;;5051799;28;20312;-67
2022/08/11 01:49:36;;;;;;;6.88;2.40;;;;;;;;;;5040252;28;20136;-66
2022/08/11 01:52:13;;;;;;;6.15;2.45;;;;;;;;;;5033951;28;20052;-68
2022/08/11 01:54:47;;;;;;;6.57;2.60;;;;;;;;;;5040205;28;20060;-67
2022/08/11 01:57:15;;;;;;;7.20;2.55;;;;;;;;;;5052657;28;20033;-68
2022/08/11 01:59:50;;;;;;;4.03;2.40;;;;;;;;;;5030837;28;20033;-68
2022/08/11 02:02:44;;;;;;;4.55;2.50;;;;;;;;;;5045331;28;20526;-68
2022/08/11 02:05:25;;;;;;;6.88;2.35;;;;;;;;;;5047628;28;20473;-68
2022/08/11 02:08:37;;;;;;;4.57;2.40;;;;;;;;;;5053114;28;20120;-68
2022/08/11 02:11:29;;;;;;;4.57;2.30;;;;;;;;;;5011299;28;20462;-68
2022/08/11 02:14:31;;;;;;;5.82;2.63;;;;;;;;;;5010241;28;20141;-67
2022/08/11 02:17:30;;;;;;;7.15;2.75;;;;;;;;;;5011708;28;20069;-67
2022/08/11 02:26:32;;;;;;;4.60;2.60;;;;;;;;;;4979213;28;20038;-67
2022/08/11 02:29:26;;;;;;;4.32;2.60;;;;;;;;;;5008913;28;20089;-67
2022/08/11 02:35:27;;;;;;;6.82;2.70;;;;;;;;;;5008106;28;20048;-67
2022/08/11 02:38:34;;;;;;;5.00;2.72;;;;;;;;;;5008400;28;20498;-68
2022/08/11 02:44:43;;;;;;;9.75;2.63;;;;;;;;;;5032314;28;20036;-66
2022/08/11 02:47:38;;;;;;;4.05;2.53;;;;;;;;;;5032360;28;20544;-67
2022/08/11 02:50:12;;;;;;;4.68;2.55;;;;;;;;;;5032760;28;20452;-67
2022/08/11 02:53:11;;;;;;;7.38;2.55;;;;;;;;;;5041185;28;20037;-67
2022/08/11 02:55:47;;;;;;;4.47;2.63;;;;;;;;;;5040531;28;20190;-67
2022/08/11 02:58:29;;;;;;;4.60;2.60;;;;;;;;;;5030878;28;20064;-67
2022/08/11 03:01:22;;;;;;;6.63;2.45;;;;;;;;;;5034075;28;20052;-67
2022/08/11 03:04:02;;;;;;;4.53;2.65;;;;;;;;;;5042206;28;20033;-68
2022/08/11 03:06:37;;;;;;;5.95;2.70;;;;;;;;;;5049149;28;20067;-67
2022/08/11 03:09:16;;;;;;;9.68;3.15;;;;;;;;;;5052426;28;20094;-67
2022/08/11 03:18:16;;;;;;;3.83;2.55;;;;;;;;;;5051061;28;20043;-67
2022/08/11 03:20:56;;;;;;;5.38;3.00;;;;;;;;;;5041386;28;20064;-67
2022/08/11 03:23:32;;;;;;;4.82;2.70;;;;;;;;;;5036262;28;20036;-67
2022/08/11 03:26:37;;;;;;;6.35;2.80;;;;;;;;;;5031216;28;20120;-67
2022/08/11 03:29:14;;;;;;;9.88;2.90;;;;;;;;;;5042037;28;20044;-67
2022/08/11 03:31:47;;;;;;;4.50;2.70;;;;;;;;;;5038570;28;20037;-67
2022/08/11 03:34:21;;;;;;;6.53;3.00;;;;;;;;;;5051570;28;20044;-68
2022/08/11 03:36:59;;;;;;;5.57;2.60;;;;;;;;;;5030996;28;20033;-67
2022/08/11 03:39:44;;;;;;;5.60;2.80;;;;;;;;;;5031124;28;20398;-67
2022/08/11 03:42:48;;;;;;;6.47;2.70;;;;;;;;;;5035487;28;20041;-68
2022/08/11 03:45:56;;;;;;;5.53;2.72;;;;;;;;;;5047429;28;20049;-67
2022/08/11 03:48:38;;;;;;;6.00;2.85;;;;;;;;;;5039134;28;20427;-68
2022/08/11 03:51:48;;;;;;;4.97;2.70;;;;;;;;;;5048779;28;20041;-69
2022/08/11 03:54:37;;;;;;;9.35;2.95;;;;;;;;;;5033532;28;20045;-67
2022/08/11 03:57:41;;;;;;;4.75;2.70;;;;;;;;;;5029755;28;20040;-67
2022/08/11 04:00:19;;;;;;;7.50;3.00;;;;;;;;;;5031094;28;20466;-68
2022/08/11 04:03:38;;;;;;;4.97;3.00;;;;;;;;;;5039367;28;20166;-68
2022/08/11 04:06:18;;;;;;;6.72;2.97;;;;;;;;;;4983085;28;20092;-68
2022/08/11 04:08:55;;;;;;;9.55;3.00;;;;;;;;;;4988133;28;20069;-68
2022/08/11 04:11:31;;;;;;;6.20;3.20;;;;;;;;;;5016608;28;20060;-67
2022/08/11 04:17:43;;;;;;;6.07;3.05;;;;;;;;;;5041547;28;20094;-68
2022/08/11 04:20:30;;;;;;;5.10;3.40;;;;;;;;;;5042630;28;20037;-70
2022/08/11 04:23:26;;;;;;;7.38;3.42;;;;;;;;;;5032082;28;20092;-64
2022/08/11 04:26:14;;;;;;;5.75;3.60;;;;;;;;;;5031052;28;20109;-65
2022/08/11 04:29:12;;;;;;;6.63;3.22;;;;;;;;;;5040327;28;20037;-64
2022/08/11 04:32:20;;;;;;;6.82;3.50;;;;;;;;;;5037335;28;20033;-66
2022/08/11 04:35:06;;;;;;;6.13;3.38;;;;;;;;;;5024455;28;20049;-65
2022/08/11 04:37:56;;;;;;;5.53;3.30;;;;;;;;;;5035773;28;20045;-67
2022/08/11 04:40:50;;;;;;;6.28;3.70;;;;;;;;;;5031202;28;20026;-65
2022/08/11 04:43:57;;;;;;;6.95;3.40;;;;;;;;;;5049667;28;20068;-65
2022/08/11 04:46:52;;;;;;;4.60;3.20;;;;;;;;;;5035204;28;20048;-66
2022/08/11 05:01:42;;;;;;;5.53;3.20;;;;;;;;;;5033088;28;20052;-68
2022/08/11 05:07:12;;;;;;;7.95;4.05;;;;;;;;;;5034018;28;20110;-67
2022/08/11 05:09:47;;;;;;;7.00;3.40;;;;;;;;;;5034097;28;20060;-68
2022/08/11 05:12:25;;;;;;;5.03;3.00;;;;;;;;;;5035955;28;20094;-64
2022/08/11 05:35:06;;;;;;;13.15;3.70;;;;;;;;;;5044733;28;20143;-64
2022/08/11 05:57:05;;;;;;;8.23;3.40;;;;;;;;;;5033319;28;20148;-65
2022/08/11 05:59:32;;;;;;;6.40;3.60;;;;;;;;;;5034248;28;20026;-67
2022/08/11 06:02:03;;;;;;;7.90;3.72;;;;;;;;;;5033730;28;20094;-66
2022/08/11 06:04:29;;;;;;;7.25;3.70;;;;;;;;;;5050434;28;20061;-64
2022/08/11 06:06:59;;;;;;;7.35;3.88;;;;;;;;;;5051175;28;20041;-66
2022/08/11 06:09:32;;;;;;;8.63;3.63;;;;;;;;;;5047677;28;20041;-64
2022/08/11 06:12:16;;;;;;;7.60;3.72;;;;;;;;;;5052955;28;20037;-67
2022/08/11 06:14:44;;;;;;;7.28;3.58;;;;;;;;;;5050296;28;20040;-68
2022/08/11 06:17:12;;;;;;;8.88;3.70;;;;;;;;;;5034030;28;20044;-65
2022/08/11 06:19:40;;;;;;;6.72;3.75;;;;;;;;;;5031917;28;20033;-66
2022/08/11 06:22:10;;;;;;;12.43;3.85;;;;;;;;;;5033122;28;20041;-66
2022/08/11 06:24:37;;;;;;;11.70;3.75;;;;;;;;;;5031776;28;20041;-70
2022/08/11 06:27:05;;;;;;;8.50;3.83;;;;;;;;;;5033228;28;20033;-67
2022/08/11 06:29:32;;;;;;;7.13;4.03;;;;;;;;;;5031894;28;20029;-67
2022/08/11 06:32:02;;;;;;;8.45;3.72;;;;;;;;;;5039428;28;20472;-69
2022/08/11 06:34:51;;;;;;;13.30;3.78;;;;;;;;;;5046592;28;20543;-66
2022/08/11 06:37:53;;;;;;;10.05;3.70;;;;;;;;;;5047805;28;20381;-65
2022/08/11 06:40:33;;;;;;;9.95;4.00;;;;;;;;;;5049933;28;20029;-66
2022/08/11 06:43:23;;;;;;;7.65;3.55;;;;;;;;;;5052237;28;20083;-66
2022/08/11 06:46:04;;;;;;;7.78;3.58;;;;;;;;;;5030838;28;20041;-65
2022/08/11 06:48:38;;;;;;;8.63;3.95;;;;;;;;;;5033902;28;20040;-67
2022/08/11 06:51:13;;;;;;;8.20;3.70;;;;;;;;;;5051206;28;20040;-64
2022/08/11 06:53:48;;;;;;;6.00;3.72;;;;;;;;;;5048730;28;20457;-66
2022/08/11 07:02:14;;;;;;;8.10;3.70;;;;;;;;;;5033707;28;20040;-66
2022/08/11 07:04:42;;;;;;;7.40;3.72;;;;;;;;;;5042237;28;20052;-68
2022/08/11 07:15:59;;;;;;;8.85;3.38;;;;;;;;;;5032929;28;20468;-67
2022/08/11 07:29:54;;;;;;;9.55;3.60;;;;;;;;;;5038305;28;20044;-66
2022/08/11 07:32:32;;;;;;;9.52;3.50;;;;;;;;;;5049022;28;20028;-66
2022/08/11 07:35:23;;;;;;;8.20;3.63;;;;;;;;;;5036802;28;20244;-66
2022/08/11 07:37:57;;;;;;;10.30;3.45;;;;;;;;;;5046431;28;20389;-68
2022/08/11 07:40:24;;;;;;;13.23;3.40;;;;;;;;;;5038880;28;20037;-64
2022/08/11 07:42:52;;;;;;;13.40;3.53;;;;;;;;;;5030898;28;20030;-69
2022/08/11 07:53:36;;;;;;;8.13;3.13;;;;;;;;;;5031629;28;20044;-64
2022/08/11 07:56:04;;;;;;;7.07;3.20;;;;;;;;;;5036560;28;20030;-64
2022/08/11 08:18:02;;;;;;;7.47;2.85;;;;;;;;;;5044567;28;20095;-69
2022/08/11 08:20:36;;;;;;;10.00;2.78;;;;;;;;;;5051421;28;20091;-67
2022/08/11 08:23:03;;;;;;;8.95;3.35;;;;;;;;;;5030681;28;20038;-66
2022/08/11 08:25:32;;;;;;;8.25;3.28;;;;;;;;;;5031365;28;20120;-67
2022/08/11 08:27:59;;;;;;;8.13;2.90;;;;;;;;;;5046159;28;20040;-66
2022/08/11 08:30:46;;;;;;;6.00;2.72;;;;;;;;;;5051380;28;20037;-67
2022/08/11 08:33:20;;;;;;;10.38;3.10;;;;;;;;;;5048238;28;20136;-66
2022/08/11 08:35:49;;;;;;;7.80;3.17;;;;;;;;;;5050850;28;20090;-66
2022/08/11 08:38:15;;;;;;;8.10;3.03;;;;;;;;;;5054379;28;20041;-67
2022/08/11 08:40:44;;;;;;;6.97;3.45;;;;;;;;;;5052994;28;20090;-70
2022/08/11 08:43:15;;;;;;;9.43;3.00;;;;;;;;;;5054877;28;20490;-68
2022/08/11 08:45:41;;;;;;;7.30;2.90;;;;;;;;;;5050214;28;20041;-71
2022/08/11 08:48:14;;;;;;;7.15;3.20;;;;;;;;;;5042787;28;20029;-66
2022/08/11 08:53:50;;;;;;;4.97;3.15;;;;;;;;;;5052697;28;20495;-66
2022/08/11 08:56:17;;;;;;;5.18;3.03;;;;;;;;;;5054040;28;20048;-68
2022/08/11 08:58:47;;;;;;;6.82;3.08;;;;;;;;;;5051268;28;20124;-69
2022/08/11 09:01:15;;;;;;;8.20;2.97;;;;;;;;;;5055166;28;20484;-66
2022/08/11 09:03:42;;;;;;;10.02;2.90;;;;;;;;;;5038900;28;20041;-71
2022/08/11 09:06:08;;;;;;;9.70;3.33;;;;;;;;;;5034579;28;20532;-66
2022/08/11 09:08:34;;;;;;;8.20;2.78;;;;;;;;;;5046541;28;20044;-66
2022/08/11 09:13:46;;;;;;;5.05;2.90;;;;;;;;;;5046477;28;20466;-67
2022/08/11 09:16:12;;;;;;;5.40;2.75;;;;;;;;;;5045933;28;20116;-68
2022/08/11 09:18:43;;;;;;;4.10;2.80;;;;;;;;;;5054414;28;20029;-66
2022/08/11 09:21:11;;;;;;;7.43;3.08;;;;;;;;;;5034167;28;20033;-66
2022/08/11 09:29:08;;;;;;;9.07;3.10;;;;;;;;;;5049297;28;20067;-65
2022/08/11 09:31:34;;;;;;;6.13;2.92;;;;;;;;;;5045618;28;20393;-65
2022/08/11 09:34:01;;;;;;;8.00;2.92;;;;;;;;;;5017778;28;20541;-67
2022/08/11 09:42:06;;;;;;;6.07;2.83;;;;;;;;;;5052216;28;20044;-68
2022/08/11 09:44:49;;;;;;;6.90;2.75;;;;;;;;;;5053948;28;20028;-67
2022/08/11 09:47:21;;;;;;;5.32;2.60;;;;;;;;;;5016052;28;20034;-67
2022/08/11 09:49:48;;;;;;;5.85;2.80;;;;;;;;;;5041751;28;20115;-66
2022/08/11 09:52:14;;;;;;;6.43;2.70;;;;;;;;;;5052900;28;20044;-66
2022/08/11 09:54:46;;;;;;;6.82;2.92;;;;;;;;;;5017498;28;20033;-66
2022/08/11 09:59:56;;;;;;;5.05;2.90;;;;;;;;;;5038129;28;20047;-65
2022/08/11 10:02:26;;;;;;;4.40;2.90;;;;;;;;;;5050863;28;20397;-64
2022/08/11 10:07:00;;;;;;;11.10;2.90;;;;;;;;;;5045179;28;20029;-69
2022/08/11 10:07:49;;;;;;;8.15;3.20;;;;;;;;;;5047842;28;20074;-66
2022/08/11 10:10:21;;;;;;;6.13;2.80;;;;;;;;;;5033256;28;20521;-67
2022/08/11 10:12:49;;;;;;;9.32;2.95;;;;;;;;;;5032484;28;20030;-69
2022/08/11 10:15:32;;;;;;;3.90;2.90;;;;;;;;;;5033090;28;20441;-67
2022/08/11 10:20:49;;;;;;;5.63;2.88;;;;;;;;;;5034108;28;20137;-65
2022/08/11 10:28:43;;;;;;;5.03;2.90;;;;;;;;;;5045128;28;20129;-67
2022/08/11 10:33:59;;;;;;;6.97;2.70;;;;;;;;;;5040558;28;20536;-65
2022/08/11 10:36:30;;;;;;;5.10;2.80;;;;;;;;;;5033257;28;20036;-66
2022/08/11 10:38:57;;;;;;;5.10;2.92;;;;;;;;;;5013945;28;20473;-67
2022/08/11 10:44:09;;;;;;;7.35;2.72;;;;;;;;;;5047968;28;20126;-66
2022/08/11 10:49:20;;;;;;;5.40;2.70;;;;;;;;;;5052752;28;20056;-67
2022/08/11 11:00:05;;;;;;;6.03;2.80;;;;;;;;;;5031326;28;20099;-66
2022/08/11 11:02:31;;;;;;;9.10;3.00;;;;;;;;;;5031297;28;20056;-67
2022/08/11 11:05:03;;;;;;;4.57;2.80;;;;;;;;;;5030528;28;20033;-66
2022/08/11 11:07:56;;;;;;;5.03;2.88;;;;;;;;;;5052027;28;20032;-66
2022/08/11 11:10:22;;;;;;;8.60;2.70;;;;;;;;;;5052161;28;20045;-66
2022/08/11 11:18:39;;;;;;;4.72;2.70;;;;;;;;;;5038491;28;20060;-67
2022/08/11 11:21:15;;;;;;;7.25;2.85;;;;;;;;;;5043526;28;20397;-65
2022/08/11 11:23:53;;;;;;;8.10;3.08;;;;;;;;;;5049982;28;20151;-64
2022/08/11 11:26:27;;;;;;;5.60;2.80;;;;;;;;;;5031906;28;20037;-64
2022/08/11 11:29:05;;;;;;;4.70;2.50;;;;;;;;;;5031453;28;20040;-65
2022/08/11 11:31:38;;;;;;;4.40;2.90;;;;;;;;;;5032247;28;20111;-66
2022/08/11 11:34:12;;;;;;;3.78;2.70;;;;;;;;;;5031130;28;20061;-66
2022/08/11 11:36:53;;;;;;;5.45;2.67;;;;;;;;;;5032162;28;20036;-66
2022/08/11 11:39:21;;;;;;;6.68;2.70;;;;;;;;;;5039024;28;20036;-65
2022/08/11 11:41:48;;;;;;;5.18;2.60;;;;;;;;;;5048281;28;20037;-65
2022/08/11 11:44:14;;;;;;;6.40;2.60;;;;;;;;;;5041780;28;20057;-65
2022/08/11 11:46:41;;;;;;;4.03;2.70;;;;;;;;;;5052038;28;20457;-64
2022/08/11 11:49:08;;;;;;;4.30;2.72;;;;;;;;;;5047732;28;20060;-69
2022/08/11 11:51:36;;;;;;;9.27;2.50;;;;;;;;;;5032407;28;20043;-65
2022/08/11 11:54:03;;;;;;;5.07;2.67;;;;;;;;;;5035770;28;20056;-66
2022/08/11 11:56:30;;;;;;;5.80;2.92;;;;;;;;;;5040998;28;20037;-65
2022/08/11 12:01:42;;;;;;;7.45;2.67;;;;;;;;;;5037657;28;20048;-65
2022/08/11 12:04:10;;;;;;;5.53;2.50;;;;;;;;;;5031107;28;20041;-66
2022/08/11 12:06:37;;;;;;;7.32;2.70;;;;;;;;;;5046575;28;20064;-65
2022/08/11 12:09:03;;;;;;;3.72;2.47;;;;;;;;;;5050524;28;20413;-65
2022/08/11 12:14:17;;;;;;;5.78;2.90;;;;;;;;;;5051408;28;20122;-65
2022/08/11 12:16:45;;;;;;;4.22;2.70;;;;;;;;;;5049892;28;20029;-66
2022/08/11 12:19:20;;;;;;;6.35;2.63;;;;;;;;;;5049245;28;20029;-66
2022/08/11 12:27:20;;;;;;;6.00;2.60;;;;;;;;;;5032625;28;20568;-65
2022/08/11 12:29:51;;;;;;;;;;;;;;;;;;5014643;28;20098;-65
2022/08/11 12:32:19;;;;;;;6.63;2.60;;;;;;;;;;5047157;28;19913;-67
2022/08/11 12:34:44;;;;;;;3.97;2.38;;;;;;;;;;5049614;28;20063;-66
2022/08/11 12:37:12;;;;;;;4.55;2.60;;;;;;;;;;5041995;28;20510;-66
2022/08/11 12:45:26;;;;;;;5.13;2.80;;;;;;;;;;5038931;28;20385;-67
2022/08/11 12:54:10;;;;;;;5.78;2.47;;;;;;;;;;5048708;28;20036;-66
2022/08/11 13:05:12;;;;;;;6.32;2.53;;;;;;;;;;5049843;28;20083;-68
2022/08/11 13:07:41;;;;;;;4.70;2.58;;;;;;;;;;5050569;28;20029;-67
2022/08/11 13:10:09;;;;;;;5.75;2.80;;;;;;;;;;5048664;28;20037;-67
2022/08/11 13:12:47;;;;;;;7.40;2.70;;;;;;;;;;5050532;28;20090;-67
2022/08/11 13:15:22;;;;;;;6.35;2.63;;;;;;;;;;5044092;28;20871;-66
2022/08/11 13:17:50;;;;;;;4.32;2.78;;;;;;;;;;5050846;28;20452;-68
2022/08/11 13:20:18;;;;;;;7.97;2.88;;;;;;;;;;5031722;28;20056;-66
2022/08/11 13:22:48;;;;;;;9.13;2.80;;;;;;;;;;5051342;28;20459;-66
2022/08/11 13:25:16;;;;;;;6.55;2.58;;;;;;;;;;5041016;28;20039;-67
2022/08/11 13:27:46;;;;;;;6.03;2.55;;;;;;;;;;5036766;28;20060;-66
2022/08/11 13:33:00;;;;;;;8.75;2.47;;;;;;;;;;5047211;28;20071;-68
2022/08/11 13:35:29;;;;;;;4.82;2.65;;;;;;;;;;5042734;28;20040;-66
2022/08/11 13:37:55;;;;;;;4.90;2.60;;;;;;;;;;5037403;28;20500;-67
2022/08/11 13:40:21;;;;;;;6.63;2.60;;;;;;;;;;5037196;28;20461;-66
2022/08/11 13:42:48;;;;;;;7.88;2.38;;;;;;;;;;5052819;28;20111;-67
2022/08/11 13:45:14;;;;;;;5.55;2.58;;;;;;;;;;5042896;28;20021;-67
2022/08/11 13:47:41;;;;;;;7.95;2.50;;;;;;;;;;5053512;28;20033;-67
2022/08/11 13:50:08;;;;;;;7.95;2.55;;;;;;;;;;5052563;28;20526;-68
2022/08/11 13:52:38;;;;;;;3.70;2.40;;;;;;;;;;5053676;28;20496;-67
2022/08/11 13:55:05;;;;;;;5.38;2.47;;;;;;;;;;5053255;28;20326;-67
2022/08/11 13:57:34;;;;;;;8.48;2.72;;;;;;;;;;5041239;28;20072;-68
2022/08/11 14:00:18;;;;;;;8.68;2.60;;;;;;;;;;5039440;28;20036;-68
2022/08/11 14:02:47;;;;;;;5.40;2.50;;;;;;;;;;5046968;28;20032;-67
2022/08/11 14:05:16;;;;;;;5.10;2.80;;;;;;;;;;5050851;28;20037;-67
2022/08/11 14:07:52;;;;;;;4.07;2.33;;;;;;;;;;5049648;28;20033;-67
2022/08/11 14:10:20;;;;;;;8.50;2.30;;;;;;;;;;5033335;28;20266;-67
2022/08/11 14:15:47;;;;;;;6.25;2.50;;;;;;;;;;5044343;28;20075;-68
2022/08/11 14:18:22;;;;;;;6.00;2.63;;;;;;;;;;5051364;28;20036;-67
2022/08/11 14:23:41;;;;;;;4.00;2.47;;;;;;;;;;5052040;28;20044;-67
2022/08/11 14:26:22;;;;;;;3.83;2.50;;;;;;;;;;5034278;28;20041;-67
2022/08/11 14:28:54;;;;;;;6.72;2.45;;;;;;;;;;5039476;28;20030;-68
2022/08/11 14:31:22;;;;;;;5.40;2.30;;;;;;;;;;5030063;28;20165;-68
2022/08/11 14:33:49;;;;;;;6.68;2.50;;;;;;;;;;5048403;28;20036;-68
2022/08/11 14:36:15;;;;;;;7.55;2.63;;;;;;;;;;5051638;28;20454;-66
2022/08/11 14:38:42;;;;;;;5.63;2.58;;;;;;;;;;5045381;28;20041;-68
2022/08/11 14:49:28;;;;;;;4.03;2.60;;;;;;;;;;5052302;28;20409;-68
2022/08/11 14:51:56;;;;;;;5.85;2.45;;;;;;;;;;5047984;28;20025;-68
2022/08/11 14:57:12;;;;;;;4.50;2.30;;;;;;;;;;5045586;28;20127;-68
2022/08/11 14:59:38;;;;;;;3.78;2.55;;;;;;;;;;5028014;28;20163;-68
2022/08/11 15:04:52;;;;;;;5.13;2.42;;;;;;;;;;5033755;28;20052;-67
2022/08/11 15:07:28;;;;;;;3.38;2.40;;;;;;;;;;5046012;28;20093;-68
2022/08/11 15:09:55;;;;;;;6.07;2.55;;;;;;;;;;5032889;28;20041;-67
2022/08/11 15:12:20;;;;;;;5.28;2.70;;;;;;;;;;5044751;28;20167;-67
2022/08/11 15:17:33;;;;;;;7.85;2.75;;;;;;;;;;5033156;28;20067;-67
2022/08/11 15:25:35;;;;;;;5.47;2.70;;;;;;;;;;5051327;28;20119;-68
2022/08/11 15:39:34;;;;;;;5.90;2.60;;;;;;;;;;5035554;28;20040;-69
2022/08/11 15:47:47;;;;;;;3.60;2.50;;;;;;;;;;5051048;28;20083;-69
2022/08/11 15:50:17;;;;;;;5.50;2.50;;;;;;;;;;5051008;28;20029;-67
2022/08/11 15:52:47;;;;;;;;;;;;;;;;;;5049746;28;20033;-67
2022/08/11 15:55:13;;;;;;;5.80;2.53;;;;;;;;;;5050643;28;20285;-68
2022/08/11 16:05:56;;;;;;;5.63;2.80;;;;;;;;;;5032952;28;20123;-68
2022/08/11 16:08:24;;;;;;;6.65;2.65;;;;;;;;;;5042389;28;20429;-68
2022/08/11 16:10:51;;;;;;;6.50;2.50;;;;;;;;;;5030967;28;20029;-68
2022/08/11 16:16:14;;;;;;;4.38;2.58;;;;;;;;;;5047276;28;20116;-70
2022/08/11 16:18:55;;;;;;;5.18;2.60;;;;;;;;;;5048820;28;20048;-68
2022/08/11 16:21:26;;;;;;;3.72;2.58;;;;;;;;;;5049754;28;20060;-68
2022/08/11 16:23:55;;;;;;;4.28;2.60;;;;;;;;;;5050535;28;20108;-68
2022/08/11 16:26:22;;;;;;;6.93;2.90;;;;;;;;;;5041195;28;20040;-69
2022/08/11 16:28:51;;;;;;;8.57;2.70;;;;;;;;;;5038151;28;20274;-68
2022/08/11 16:31:18;;;;;;;6.75;2.50;;;;;;;;;;5041456;28;20394;-67
2022/08/11 16:33:44;;;;;;;6.03;2.50;;;;;;;;;;5038531;28;20032;-68
2022/08/11 16:38:58;;;;;;;6.40;2.70;;;;;;;;;;5043930;28;20588;-68
2022/08/11 16:47:21;;;;;;;4.40;2.53;;;;;;;;;;5009975;28;20048;-68
2022/08/11 16:49:52;;;;;;;4.63;2.88;;;;;;;;;;5030751;28;20044;-67
2022/08/11 16:52:18;;;;;;;4.13;2.72;;;;;;;;;;5032835;28;20179;-67
2022/08/11 16:54:46;;;;;;;6.93;2.70;;;;;;;;;;5033063;28;20037;-68
2022/08/11 17:00:06;;;;;;;5.43;2.60;;;;;;;;;;5050726;28;20036;-68
2022/08/11 17:13:59;;;;;;;3.65;2.67;;;;;;;;;;5041583;28;20036;-67
2022/08/11 17:16:38;;;;;;;3.95;2.67;;;;;;;;;;5053532;28;20041;-69
2022/08/11 17:19:17;;;;;;;4.47;2.63;;;;;;;;;;5052226;28;20039;-69
2022/08/11 17:24:34;;;;;;;5.32;2.95;;;;;;;;;;5052792;28;20036;-68
2022/08/11 17:27:00;;;;;;;11.38;3.13;;;;;;;;;;5052254;28;20030;-69
2022/08/11 17:29:34;;;;;;;4.55;2.63;;;;;;;;;;5033495;28;20033;-68
2022/08/11 17:37:36;;;;;;;4.45;2.80;;;;;;;;;;5051424;28;20052;-68
2022/08/11 17:40:06;;;;;;;8.15;2.90;;;;;;;;;;5053187;28;20472;-68
2022/08/11 17:48:24;;;;;;;3.40;2.90;;;;;;;;;;4973032;28;20429;-68
2022/08/11 17:51:03;;;;;;;7.75;2.97;;;;;;;;;;5033134;28;20061;-68
2022/08/11 18:01:51;;;;;;;6.25;3.00;;;;;;;;;;5052793;28;20048;-68
2022/08/11 18:04:18;;;;;;;7.57;2.95;;;;;;;;;;5049483;28;20052;-68
2022/08/11 18:06:45;;;;;;;8.65;2.70;;;;;;;;;;5042571;28;20371;-67
